createdAt,value
2022-09-17T00:04:29.596Z,11.37
2022-09-17T00:07:15.684Z,11.50
2022-09-17T00:10:00.903Z,12.68
2022-09-17T00:12:47.223Z,13.18
2022-09-17T00:15:32.631Z,13.57
2022-09-17T00:18:18.248Z,10.90
2022-09-17T00:21:03.908Z,12.20
2022-09-17T00:23:49.538Z,11.48
2022-09-17T00:26:36.732Z,11.18
2022-09-17T00:29:21.844Z,11.55
2022-09-17T00:32:06.866Z,11.83
2022-09-17T00:34:52.301Z,11.18
2022-09-17T00:37:37.755Z,12.73
2022-09-17T00:40:22.661Z,13.25
2022-09-17T00:43:12.195Z,11.05
2022-09-17T00:45:57.261Z,12.50
2022-09-17T00:48:43.023Z,11.45
2022-09-17T00:51:37.018Z,10.40
2022-09-17T00:54:22.217Z,11.90
2022-09-17T00:57:07.819Z,10.63
2022-09-17T00:59:53.730Z,9.77
2022-09-17T01:55:37.457Z,11.63
2022-09-17T02:54:56.472Z,8.18
2022-09-17T03:46:00.427Z,8.48
2022-09-17T03:48:46.060Z,8.38
2022-09-17T03:51:31.202Z,8.90
2022-09-17T03:54:17.577Z,7.85
2022-09-17T03:57:02.886Z,7.70
2022-09-17T03:59:47.764Z,7.38
2022-09-17T04:44:32.306Z,8.60
2022-09-17T04:52:22.211Z,7.47
2022-09-17T04:55:14.525Z,8.70
2022-09-17T04:58:03.013Z,10.60
2022-09-17T05:00:57.167Z,7.10
2022-09-17T05:03:57.469Z,7.97
2022-09-17T05:10:10.213Z,7.03
2022-09-17T05:12:58.534Z,8.30
2022-09-17T05:16:03.699Z,7.38
2022-09-17T05:19:15.196Z,6.70
2022-09-17T05:22:05.476Z,8.40
2022-09-17T05:28:24.896Z,7.57
2022-09-17T05:31:18.595Z,6.75
2022-09-17T05:34:08.993Z,7.00
2022-09-17T05:37:15.950Z,8.07
2022-09-17T05:41:12.123Z,6.45
2022-09-17T05:44:33.063Z,6.80
2022-09-17T05:47:18.420Z,7.32
2022-09-17T05:50:07.671Z,7.13
2022-09-17T06:11:07.406Z,5.18
2022-09-17T06:23:00.273Z,6.05
2022-09-17T06:26:16.339Z,7.57
2022-09-17T06:29:22.410Z,6.05
2022-09-17T06:36:14.619Z,6.45
2022-09-17T06:39:13.025Z,5.55
2022-09-17T06:41:59.343Z,5.70
2022-09-17T06:44:49.730Z,6.07
2022-09-17T06:47:38.298Z,9.03
2022-09-17T06:50:48.720Z,7.20
2022-09-17T06:53:43.023Z,9.38
2022-09-17T06:57:09.677Z,11.13
2022-09-17T07:00:18.500Z,8.75
2022-09-17T07:03:03.830Z,8.60
2022-09-17T07:05:49.109Z,8.25
2022-09-17T07:08:36.942Z,9.45
2022-09-17T07:11:21.986Z,8.40
2022-09-17T07:14:07.091Z,10.50
2022-09-17T07:16:52.693Z,7.33
2022-09-17T07:19:38.126Z,8.00
2022-09-17T07:22:24.725Z,7.20
2022-09-17T07:25:10.854Z,6.63
2022-09-17T07:27:56.546Z,7.30
2022-09-17T07:30:41.741Z,8.40
2022-09-17T07:33:27.784Z,6.53
2022-09-17T07:36:15.543Z,7.28
2022-09-17T07:39:00.519Z,9.60
2022-09-17T07:41:45.448Z,6.63
2022-09-17T07:44:30.915Z,10.20
2022-09-17T07:47:16.147Z,8.20
2022-09-17T07:50:01.037Z,9.43
2022-09-17T07:52:47.450Z,7.15
2022-09-17T07:55:32.684Z,8.15
2022-09-17T07:58:17.835Z,8.83
2022-09-17T08:01:05.221Z,10.23
2022-09-17T08:03:52.687Z,13.05
2022-09-17T08:06:38.258Z,8.13
2022-09-17T08:09:23.447Z,6.28
2022-09-17T08:12:08.470Z,7.57
2022-09-17T08:14:53.719Z,7.50
2022-09-17T08:17:40.036Z,10.35
2022-09-17T08:20:26.186Z,8.93
2022-09-17T08:23:11.307Z,7.65
2022-09-17T08:25:58.199Z,8.17
2022-09-17T08:28:48.275Z,7.18
2022-09-17T08:31:33.499Z,9.80
2022-09-17T08:34:18.916Z,9.80
2022-09-17T08:37:03.952Z,11.48
2022-09-17T08:39:49.435Z,9.70
2022-09-17T08:43:01.586Z,7.18
2022-09-17T08:45:52.707Z,5.40
2022-09-17T08:48:43.163Z,9.00
2022-09-17T08:51:48.741Z,8.23
2022-09-17T08:54:46.190Z,8.43
2022-09-17T08:57:59.621Z,7.22
2022-09-17T09:00:58.683Z,8.85
2022-09-17T09:04:29.954Z,6.32
2022-09-17T09:07:27.090Z,6.90
2022-09-17T09:10:18.279Z,6.67
2022-09-17T09:13:04.650Z,7.53
2022-09-17T09:16:00.206Z,8.10
2022-09-17T09:18:48.626Z,7.43
2022-09-17T09:21:49.331Z,7.22
2022-09-17T09:24:53.112Z,7.47
2022-09-17T09:27:56.122Z,7.18
2022-09-17T09:30:56.277Z,6.55
2022-09-17T09:33:47.751Z,6.50
2022-09-17T09:36:33.827Z,7.55
2022-09-17T09:39:24.889Z,9.53
2022-09-17T09:42:30.391Z,9.80
2022-09-17T09:45:34.674Z,11.00
2022-09-17T09:48:42.712Z,10.90
2022-09-17T09:51:50.608Z,7.72
2022-09-17T09:54:59.237Z,11.27
2022-09-17T09:57:50.130Z,8.68
2022-09-17T10:00:38.165Z,5.80
2022-09-17T10:03:28.025Z,6.53
2022-09-17T10:06:15.064Z,7.05
2022-09-17T10:09:00.211Z,10.03
2022-09-17T10:12:19.653Z,4.97
2022-09-17T10:15:28.135Z,6.50
2022-09-17T10:18:20.184Z,6.00
2022-09-17T10:21:05.101Z,6.70
2022-09-17T10:23:50.982Z,6.80
2022-09-17T10:26:37.337Z,6.35
2022-09-17T10:29:22.373Z,6.18
2022-09-17T10:32:16.018Z,6.28
2022-09-17T10:35:24.719Z,5.43
2022-09-17T10:38:31.576Z,5.97
2022-09-17T10:41:19.633Z,5.50
2022-09-17T10:44:17.933Z,6.93
2022-09-17T10:47:17.012Z,6.25
2022-09-17T10:50:04.496Z,5.53
2022-09-17T10:52:55.776Z,5.53
2022-09-17T10:56:13.271Z,3.92
2022-09-17T10:59:08.467Z,3.90
2022-09-17T11:02:31.218Z,4.75
2022-09-17T11:05:44.420Z,5.45
2022-09-17T11:09:06.065Z,4.37
2022-09-17T11:12:03.259Z,4.15
2022-09-17T11:15:17.684Z,5.05
2022-09-17T11:18:16.705Z,5.30
2022-09-17T11:21:24.381Z,4.78
2022-09-17T11:24:27.965Z,5.70
2022-09-17T11:27:27.582Z,5.65
2022-09-17T11:30:27.103Z,4.35
2022-09-17T11:33:39.578Z,5.88
2022-09-17T11:36:43.678Z,6.10
2022-09-17T11:39:37.809Z,5.97
2022-09-17T11:42:31.919Z,5.05
2022-09-17T11:45:51.007Z,6.22
2022-09-17T11:48:51.890Z,4.88
2022-09-17T11:51:41.216Z,3.90
2022-09-17T11:54:35.311Z,4.93
2022-09-17T11:57:25.624Z,3.90
2022-09-17T12:00:19.921Z,4.90
2022-09-17T12:03:13.862Z,4.85
2022-09-17T12:06:13.526Z,5.45
2022-09-17T12:09:18.326Z,4.20
2022-09-17T12:12:44.789Z,4.32
2022-09-17T12:15:31.102Z,3.17
2022-09-17T12:21:30.791Z,6.53
2022-09-17T12:24:29.346Z,3.80
2022-09-17T12:27:42.658Z,4.20
2022-09-17T12:30:42.355Z,4.00
2022-09-17T12:33:34.186Z,5.03
2022-09-17T12:36:42.565Z,5.72
2022-09-17T12:39:58.479Z,5.30
2022-09-17T12:43:21.371Z,5.05
2022-09-17T12:46:32.758Z,4.50
2022-09-17T12:49:27.181Z,5.53
2022-09-17T12:52:15.259Z,6.07
2022-09-17T12:55:25.724Z,5.25
2022-09-17T12:58:23.159Z,5.35
2022-09-17T13:01:38.734Z,5.53
2022-09-17T13:05:01.991Z,4.18
2022-09-17T13:08:19.679Z,5.45
2022-09-17T13:11:23.576Z,4.85
2022-09-17T13:14:24.325Z,5.15
2022-09-17T13:17:42.319Z,4.63
2022-09-17T13:21:01.640Z,5.28
2022-09-17T13:23:50.371Z,6.88
2022-09-17T13:26:36.972Z,4.72
2022-09-17T13:29:47.154Z,4.97
2022-09-17T13:32:32.187Z,4.73
2022-09-17T13:35:16.982Z,6.85
2022-09-17T13:38:03.426Z,5.10
2022-09-17T13:40:48.463Z,3.78
2022-09-17T13:43:33.557Z,4.88
2022-09-17T13:46:23.530Z,5.93
2022-09-17T13:49:15.345Z,4.97
2022-09-17T13:52:00.711Z,4.95
2022-09-17T13:54:46.061Z,5.95
2022-09-17T13:57:34.115Z,3.55
2022-09-17T14:00:51.069Z,4.63
2022-09-17T14:03:44.446Z,3.05
2022-09-17T14:06:33.050Z,4.90
2022-09-17T14:09:45.785Z,4.10
2022-09-17T14:12:44.559Z,5.03
2022-09-17T14:15:41.818Z,3.77
2022-09-17T14:18:26.641Z,3.63
2022-09-17T14:21:24.468Z,4.82
2022-09-17T14:24:24.575Z,6.18
2022-09-17T14:27:42.557Z,4.22
2022-09-17T14:30:31.743Z,3.27
2022-09-17T14:33:26.157Z,4.10
2022-09-17T14:36:16.527Z,3.30
2022-09-17T14:39:05.939Z,4.55
2022-09-17T14:41:53.235Z,5.55
2022-09-17T14:44:51.128Z,5.90
2022-09-17T14:47:36.453Z,4.82
2022-09-17T14:50:21.475Z,5.38
2022-09-17T14:53:17.715Z,4.43
2022-09-17T14:56:02.787Z,6.45
2022-09-17T14:58:51.437Z,4.87
2022-09-17T15:01:37.490Z,5.82
2022-09-17T15:04:28.174Z,5.65
2022-09-17T15:07:13.389Z,4.30
2022-09-17T15:10:17.656Z,5.35
2022-09-17T15:13:07.587Z,5.57
2022-09-17T15:16:02.426Z,5.00
2022-09-17T15:18:54.860Z,4.53
2022-09-17T15:21:44.310Z,4.15
2022-09-17T15:24:36.501Z,2.47
2022-09-17T15:27:38.966Z,3.17
2022-09-17T15:30:26.084Z,3.28
2022-09-17T15:33:12.583Z,3.58
2022-09-17T15:36:20.300Z,3.42
2022-09-17T15:39:31.988Z,4.28
2022-09-17T15:42:20.261Z,4.30
2022-09-17T15:45:19.738Z,4.53
2022-09-17T15:48:10.413Z,3.85
2022-09-17T15:51:02.004Z,3.33
2022-09-17T15:53:53.270Z,2.90
2022-09-17T15:56:40.658Z,3.13
2022-09-17T15:59:34.718Z,4.13
2022-09-17T16:02:29.749Z,2.45
2022-09-17T16:05:18.069Z,3.00
2022-09-17T16:08:33.934Z,3.05
2022-09-17T16:11:24.430Z,4.27
2022-09-17T16:14:09.575Z,2.83
2022-09-17T16:16:56.237Z,3.22
2022-09-17T16:19:42.024Z,3.47
2022-09-17T16:22:29.124Z,4.13
2022-09-17T16:25:14.679Z,3.40
2022-09-17T16:28:04.035Z,2.83
2022-09-17T16:30:49.551Z,3.30
2022-09-17T16:33:34.410Z,2.75
2022-09-17T16:36:19.293Z,2.70
2022-09-17T16:39:05.111Z,3.50
2022-09-17T16:41:50.000Z,3.63
2022-09-17T16:44:35.275Z,3.58
2022-09-17T16:47:20.487Z,2.50
2022-09-17T16:50:08.058Z,2.38
2022-09-17T16:52:53.860Z,2.73
2022-09-17T16:55:39.036Z,4.05
2022-09-17T16:58:23.918Z,3.70
2022-09-17T17:01:09.879Z,2.75
2022-09-17T17:03:55.933Z,3.92
2022-09-17T17:06:40.935Z,3.97
2022-09-17T17:09:25.966Z,3.35
2022-09-17T17:12:11.522Z,3.80
2022-09-17T17:14:56.974Z,3.35
2022-09-17T17:17:42.115Z,4.30
2022-09-17T17:20:27.650Z,2.43
2022-09-17T17:23:13.586Z,4.47
2022-09-17T17:25:58.706Z,4.03
2022-09-17T17:28:44.344Z,2.95
2022-09-17T17:31:29.757Z,2.95
2022-09-17T17:34:14.880Z,4.60
2022-09-17T17:37:00.113Z,3.30
2022-09-17T17:39:45.420Z,3.40
2022-09-17T17:42:37.241Z,3.55
2022-09-17T17:45:22.518Z,2.85
2022-09-17T17:48:07.954Z,4.23
2022-09-17T17:50:56.559Z,3.80
2022-09-17T17:53:42.868Z,3.58
2022-09-17T17:56:28.096Z,3.63
2022-09-17T17:59:13.443Z,3.08
2022-09-17T18:01:58.498Z,3.90
2022-09-17T18:04:43.847Z,3.63
2022-09-17T18:07:29.323Z,3.70
2022-09-17T18:10:14.486Z,4.53
2022-09-17T18:12:59.916Z,2.72
2022-09-17T18:15:58.920Z,2.87
2022-09-17T18:18:45.674Z,3.08
2022-09-17T18:21:30.759Z,2.67
2022-09-17T18:24:15.695Z,3.45
2022-09-17T18:27:00.729Z,3.78
2022-09-17T18:29:46.194Z,4.97
2022-09-17T18:32:31.731Z,6.15
2022-09-17T18:35:19.976Z,6.45
2022-09-17T18:38:07.956Z,9.10
2022-09-17T18:40:53.034Z,10.15
2022-09-17T18:43:37.975Z,10.23
2022-09-17T18:46:23.334Z,7.88
2022-09-17T18:49:08.727Z,13.85
2022-09-17T18:51:53.791Z,20.55
2022-09-17T18:54:38.894Z,9.20
2022-09-17T18:57:23.772Z,8.53
2022-09-17T19:00:11.411Z,7.35
2022-09-17T19:02:56.474Z,10.02
2022-09-17T19:05:41.515Z,8.48
2022-09-17T19:08:26.664Z,8.98
2022-09-17T19:11:12.837Z,9.37
2022-09-17T19:13:58.217Z,8.38
2022-09-17T19:16:43.542Z,17.02
2022-09-17T19:19:29.047Z,11.98
2022-09-17T19:22:14.414Z,7.40
2022-09-17T19:24:59.584Z,10.73
2022-09-17T19:27:44.871Z,7.25
2022-09-17T19:30:30.867Z,7.55
2022-09-17T19:33:16.674Z,6.90
2022-09-17T19:36:03.454Z,7.20
2022-09-17T19:38:48.931Z,5.57
2022-09-17T19:41:36.164Z,6.15
2022-09-17T19:44:21.332Z,7.97
2022-09-17T19:47:06.650Z,11.95
2022-09-17T19:49:52.474Z,5.75
2022-09-17T19:52:37.765Z,6.77
2022-09-17T19:55:24.500Z,5.82
2022-09-17T19:58:09.725Z,5.70
2022-09-17T20:00:56.360Z,6.68
2022-09-17T20:03:43.443Z,6.93
2022-09-17T20:06:28.287Z,6.77
2022-09-17T20:09:13.138Z,4.63
2022-09-17T20:11:59.439Z,7.07
2022-09-17T20:14:44.475Z,6.05
2022-09-17T20:17:30.177Z,8.50
2022-09-17T20:20:15.364Z,5.03
2022-09-17T20:23:00.572Z,5.30
2022-09-17T20:25:52.335Z,5.93
2022-09-17T20:28:38.786Z,5.35
2022-09-17T20:31:28.669Z,7.68
2022-09-17T20:34:14.210Z,5.00
2022-09-17T20:37:12.659Z,6.95
2022-09-17T20:39:58.921Z,6.55
2022-09-17T20:42:44.199Z,5.85
2022-09-17T20:45:29.148Z,7.28
2022-09-17T20:48:14.505Z,6.93
2022-09-17T20:51:04.019Z,9.55
2022-09-17T20:53:49.546Z,5.25
2022-09-17T20:56:35.347Z,7.00
2022-09-17T20:59:24.785Z,7.90
2022-09-17T21:02:11.461Z,5.53
2022-09-17T21:04:56.631Z,6.28
2022-09-17T21:07:41.744Z,6.05
2022-09-17T21:10:26.573Z,7.72
2022-09-17T21:13:11.845Z,6.80
2022-09-17T21:15:58.984Z,7.33
2022-09-17T21:18:44.947Z,5.13
2022-09-17T21:21:34.292Z,5.35
2022-09-17T21:24:20.022Z,4.35
2022-09-17T21:27:05.517Z,6.93
2022-09-17T21:29:50.480Z,7.93
2022-09-17T21:32:38.885Z,5.00
2022-09-17T21:35:25.391Z,6.40
2022-09-17T21:38:10.237Z,5.35
2022-09-17T21:40:57.143Z,6.13
2022-09-17T21:43:43.280Z,6.53
2022-09-17T21:46:32.631Z,6.22
2022-09-17T21:49:18.407Z,6.45
2022-09-17T21:52:03.454Z,4.60
2022-09-17T21:54:53.548Z,8.15
2022-09-17T21:57:38.592Z,7.27
2022-09-17T22:00:25.517Z,12.32
2022-09-17T22:03:10.615Z,7.63
2022-09-17T22:06:01.530Z,7.28
2022-09-17T22:08:47.279Z,8.05
2022-09-17T22:11:34.659Z,6.57
2022-09-17T22:14:22.153Z,9.27
2022-09-17T22:17:07.018Z,7.85
2022-09-17T22:19:52.058Z,7.35
2022-09-17T22:22:37.013Z,7.60
2022-09-17T22:25:21.911Z,7.20
2022-09-17T22:28:20.459Z,6.65
2022-09-17T22:31:09.345Z,8.10
2022-09-17T22:33:54.281Z,7.53
2022-09-17T22:36:39.742Z,4.72
2022-09-17T22:39:24.616Z,7.07
2022-09-17T22:42:09.493Z,7.43
2022-09-17T22:44:54.421Z,6.22
2022-09-17T22:47:45.000Z,6.00
2022-09-17T22:50:31.111Z,8.70
2022-09-17T22:53:18.221Z,6.67
2022-09-17T22:56:05.824Z,6.35
2022-09-17T22:58:51.774Z,7.35
2022-09-17T23:47:33.900Z,4.22
2022-09-17T23:50:19.487Z,5.95
2022-09-17T23:53:07.099Z,5.55
2022-09-17T23:55:53.138Z,6.20
2022-09-17T23:58:38.992Z,5.25
